createdAt,value
2019-04-29T00:01:31.995Z,9.17
2019-04-29T00:04:00.064Z,9.20
2019-04-29T00:06:28.415Z,9.20
2019-04-29T00:08:56.532Z,9.21
2019-04-29T00:11:24.755Z,9.23
2019-04-29T00:13:53.343Z,9.25
2019-04-29T00:16:38.981Z,9.28
2019-04-29T00:19:29.738Z,9.30
2019-04-29T00:21:58.950Z,9.31
2019-04-29T00:24:27.154Z,9.32
2019-04-29T00:26:55.273Z,9.35
2019-04-29T00:29:23.435Z,9.39
2019-04-29T00:31:51.472Z,9.42
2019-04-29T00:34:19.649Z,9.43
2019-04-29T00:36:55.222Z,9.44
2019-04-29T00:39:42.819Z,9.45
2019-04-29T00:42:32.745Z,9.44
2019-04-29T00:45:00.914Z,9.42
2019-04-29T00:47:28.940Z,9.43
2019-04-29T00:49:58.170Z,9.44
2019-04-29T00:52:26.290Z,9.44
2019-04-29T00:55:02.973Z,9.44
2019-04-29T00:57:31.972Z,9.44
2019-04-29T01:00:00.708Z,9.46
2019-04-29T01:02:28.808Z,9.44
2019-04-29T01:04:57.204Z,9.42
2019-04-29T01:07:26.695Z,9.41
2019-04-29T01:09:55.125Z,9.40
2019-04-29T01:12:23.207Z,9.40
2019-04-29T01:14:51.481Z,9.42
2019-04-29T01:17:20.290Z,9.40
2019-04-29T01:19:48.699Z,9.42
2019-04-29T01:22:17.756Z,9.45
2019-04-29T01:24:45.802Z,9.47
2019-04-29T01:27:28.041Z,9.51
2019-04-29T01:29:56.129Z,9.52
2019-04-29T01:32:24.270Z,9.50
2019-04-29T01:34:54.053Z,9.46
2019-04-29T01:37:42.461Z,9.42
2019-04-29T01:40:38.342Z,9.39
2019-04-29T01:43:07.535Z,9.34
2019-04-29T01:45:35.958Z,9.22
2019-04-29T01:48:04.040Z,9.18
2019-04-29T01:50:32.056Z,9.11
2019-04-29T01:53:08.735Z,9.03
2019-04-29T01:55:36.822Z,8.98
2019-04-29T01:58:04.923Z,8.94
2019-04-29T02:00:33.057Z,8.89
2019-04-29T02:03:01.522Z,8.88
2019-04-29T02:05:29.585Z,8.90
2019-04-29T02:07:57.851Z,8.91
2019-04-29T02:10:31.297Z,8.92
2019-04-29T02:12:59.369Z,8.92
2019-04-29T02:15:27.404Z,8.94
2019-04-29T02:17:55.497Z,8.97
2019-04-29T02:20:24.127Z,8.99
2019-04-29T02:23:12.111Z,9.00
2019-04-29T02:25:42.453Z,9.03
2019-04-29T02:28:10.534Z,9.07
2019-04-29T02:30:47.935Z,9.10
2019-04-29T02:33:16.247Z,9.11
2019-04-29T02:35:44.740Z,9.12
2019-04-29T02:38:30.998Z,9.13
2019-04-29T02:41:06.585Z,9.14
2019-04-29T02:43:36.904Z,9.12
2019-04-29T02:46:04.942Z,9.12
2019-04-29T02:48:34.661Z,9.13
2019-04-29T02:51:02.965Z,9.14
2019-04-29T02:53:31.032Z,9.15
2019-04-29T02:56:00.293Z,9.15
2019-04-29T02:58:51.042Z,9.13
2019-04-29T03:01:44.784Z,9.09
2019-04-29T03:04:16.731Z,9.04
2019-04-29T03:06:48.175Z,9.02
2019-04-29T03:09:16.259Z,8.97
2019-04-29T03:11:44.523Z,8.92
2019-04-29T03:14:12.887Z,8.90
2019-04-29T03:16:40.950Z,8.88
2019-04-29T03:19:18.561Z,8.81
2019-04-29T03:21:51.258Z,8.75
2019-04-29T03:24:19.374Z,8.65
2019-04-29T03:26:47.400Z,8.60
2019-04-29T03:29:24.105Z,8.57
2019-04-29T03:31:53.764Z,8.54
2019-04-29T03:34:21.903Z,8.51
2019-04-29T03:36:49.975Z,8.48
2019-04-29T03:39:18.333Z,8.45
2019-04-29T03:41:47.407Z,8.46
2019-04-29T03:44:15.607Z,8.45
2019-04-29T03:46:43.646Z,8.41
2019-04-29T03:49:11.700Z,8.38
2019-04-29T03:51:40.090Z,8.32
2019-04-29T03:54:10.451Z,8.30
2019-04-29T03:56:40.436Z,8.28
2019-04-29T03:59:08.589Z,8.28
2019-04-29T04:01:47.493Z,8.28
2019-04-29T04:04:33.614Z,8.28
2019-04-29T04:07:20.049Z,8.25
2019-04-29T04:09:49.529Z,8.20
2019-04-29T04:12:17.592Z,8.16
2019-04-29T04:14:45.837Z,8.13
2019-04-29T04:17:23.284Z,8.10
2019-04-29T04:19:51.791Z,8.09
2019-04-29T04:22:19.824Z,8.08
2019-04-29T04:24:51.919Z,8.06
2019-04-29T04:27:19.959Z,8.04
2019-04-29T04:29:48.907Z,8.02
2019-04-29T04:35:10.616Z,7.97
2019-04-29T04:37:38.258Z,7.93
2019-04-29T04:40:08.376Z,7.92
2019-04-29T04:42:35.873Z,7.91
2019-04-29T04:45:04.028Z,7.88
2019-04-29T04:47:31.495Z,7.88
2019-04-29T04:49:59.098Z,7.87
2019-04-29T04:52:27.332Z,7.86
2019-04-29T04:54:55.358Z,7.87
2019-04-29T04:57:23.149Z,7.84
2019-04-29T04:59:51.471Z,7.81
2019-04-29T05:02:19.991Z,7.79
2019-04-29T05:04:47.532Z,7.76
2019-04-29T05:07:15.025Z,7.75
2019-04-29T05:09:42.797Z,7.73
2019-04-29T05:12:10.486Z,7.71
2019-04-29T05:14:38.184Z,7.64
2019-04-29T05:17:05.919Z,7.63
2019-04-29T05:19:33.918Z,7.61
2019-04-29T05:22:01.528Z,7.62
2019-04-29T05:24:29.076Z,7.65
2019-04-29T05:26:56.464Z,7.66
2019-04-29T05:29:24.056Z,7.71
2019-04-29T05:31:51.564Z,7.75
2019-04-29T05:34:20.480Z,7.80
2019-04-29T05:37:06.398Z,7.84
2019-04-29T05:39:36.732Z,7.89
2019-04-29T05:42:07.702Z,7.93
2019-04-29T05:44:45.491Z,7.96
2019-04-29T05:47:29.244Z,7.98
2019-04-29T05:50:37.449Z,8.02
2019-04-29T05:53:28.613Z,8.05
2019-04-29T05:55:58.320Z,8.07
2019-04-29T05:58:28.318Z,8.10
2019-04-29T06:01:07.543Z,8.15
2019-04-29T06:03:40.332Z,8.22
2019-04-29T06:06:12.262Z,8.30
2019-04-29T06:08:40.577Z,8.38
2019-04-29T06:11:08.405Z,8.47
2019-04-29T06:13:36.222Z,8.58
2019-04-29T06:16:03.919Z,8.68
2019-04-29T06:18:31.344Z,8.80
2019-04-29T06:21:08.750Z,8.93
2019-04-29T06:23:28.441Z,9.07
2019-04-29T06:25:55.888Z,9.22
2019-04-29T06:28:43.387Z,9.39
2019-04-29T06:31:10.822Z,9.54
2019-04-29T06:33:38.437Z,9.72
2019-04-29T06:36:06.178Z,9.88
2019-04-29T06:38:33.813Z,10.04
2019-04-29T06:41:05.559Z,10.22
2019-04-29T06:43:31.078Z,10.42
2019-04-29T06:45:58.618Z,10.60
2019-04-29T06:48:26.186Z,10.81
2019-04-29T06:50:53.615Z,11.00
2019-04-29T06:53:21.703Z,11.21
2019-04-29T06:55:51.196Z,11.43
2019-04-29T06:58:18.673Z,11.66
2019-04-29T07:00:46.178Z,11.88
2019-04-29T07:03:13.825Z,12.09
2019-04-29T07:05:41.350Z,12.26
2019-04-29T07:08:08.954Z,12.44
2019-04-29T07:10:36.430Z,12.58
2019-04-29T07:13:04.181Z,12.72
2019-04-29T07:15:31.954Z,12.84
2019-04-29T07:17:59.347Z,12.96
2019-04-29T07:20:26.932Z,13.07
2019-04-29T07:22:56.524Z,13.17
2019-04-29T07:25:24.672Z,13.23
2019-04-29T07:27:53.078Z,13.30
2019-04-29T07:30:21.108Z,13.38
2019-04-29T07:32:48.970Z,13.49
2019-04-29T07:35:17.686Z,13.59
2019-04-29T07:37:45.053Z,13.72
2019-04-29T07:40:14.839Z,13.86
2019-04-29T07:42:42.414Z,14.00
2019-04-29T07:45:17.460Z,14.15
2019-04-29T07:47:56.228Z,14.35
2019-04-29T07:50:22.407Z,14.59
2019-04-29T07:52:49.959Z,14.84
2019-04-29T07:55:18.642Z,15.19
2019-04-29T07:57:47.768Z,15.51
2019-04-29T08:00:16.037Z,15.81
2019-04-29T08:02:44.471Z,16.08
2019-04-29T08:05:13.902Z,16.32
2019-04-29T08:07:43.392Z,16.53
2019-04-29T08:10:23.313Z,16.73
2019-04-29T08:12:50.289Z,16.88
2019-04-29T08:15:18.065Z,17.06
2019-04-29T08:17:45.719Z,17.33
2019-04-29T08:20:16.145Z,17.57
2019-04-29T08:22:43.872Z,17.80
2019-04-29T08:25:11.729Z,18.01
2019-04-29T08:27:43.455Z,18.19
2019-04-29T08:30:11.309Z,18.34
2019-04-29T08:32:38.619Z,18.51
2019-04-29T08:35:06.362Z,18.68
2019-04-29T08:37:34.058Z,18.85
2019-04-29T08:40:15.565Z,19.02
2019-04-29T08:42:37.316Z,19.18
2019-04-29T08:49:14.920Z,19.58
2019-04-29T08:51:42.684Z,19.99
2019-04-29T08:54:10.196Z,20.28
2019-04-29T08:56:42.501Z,20.53
2019-04-29T08:59:07.246Z,20.79
2019-04-29T09:01:35.817Z,21.03
2019-04-29T09:04:03.531Z,21.24
2019-04-29T09:06:43.464Z,21.50
2019-04-29T09:09:28.141Z,21.75
2019-04-29T09:11:43.639Z,21.96
2019-04-29T09:14:12.951Z,22.11
2019-04-29T09:16:40.169Z,22.22
2019-04-29T09:19:08.329Z,22.33
2019-04-29T09:21:36.743Z,22.46
2019-04-29T09:24:04.366Z,22.58
2019-04-29T09:26:37.541Z,22.66
2019-04-29T09:29:23.318Z,22.76
2019-04-29T09:31:54.125Z,22.86
2019-04-29T09:34:24.825Z,22.99
2019-04-29T09:36:51.448Z,23.13
2019-04-29T09:39:21.234Z,23.27
2019-04-29T09:42:14.919Z,23.40
2019-04-29T09:45:01.507Z,23.55
2019-04-29T09:47:30.337Z,23.75
2019-04-29T09:49:57.959Z,23.94
2019-04-29T09:52:25.603Z,24.08
2019-04-29T09:59:42.779Z,24.49
2019-04-29T10:02:35.994Z,24.78
2019-04-29T10:05:13.619Z,24.88
2019-04-29T10:07:41.287Z,25.00
2019-04-29T10:10:09.332Z,25.13
2019-04-29T10:12:36.928Z,25.19
2019-04-29T10:15:06.375Z,25.20
2019-04-29T10:17:55.509Z,25.15
2019-04-29T10:20:34.537Z,25.07
2019-04-29T10:23:02.484Z,25.07
2019-04-29T10:25:30.255Z,25.10
2019-04-29T10:27:57.810Z,25.09
2019-04-29T10:30:31.212Z,25.09
2019-04-29T10:32:56.561Z,25.13
2019-04-29T10:35:23.991Z,25.20
2019-04-29T10:37:52.842Z,25.25
2019-04-29T10:40:38.248Z,25.30
2019-04-29T10:43:22.295Z,25.36
2019-04-29T10:46:13.929Z,25.41
2019-04-29T10:48:48.282Z,25.46
2019-04-29T10:51:16.227Z,25.54
2019-04-29T10:53:46.692Z,25.64
2019-04-29T10:56:13.415Z,25.75
2019-04-29T10:58:41.689Z,25.83
2019-04-29T11:02:38.060Z,25.89
2019-04-29T11:05:29.234Z,25.96
2019-04-29T11:08:04.324Z,26.04
2019-04-29T11:18:12.242Z,25.98
2019-04-29T11:20:40.085Z,25.89
2019-04-29T11:23:17.940Z,25.86
2019-04-29T11:26:03.580Z,25.82
2019-04-29T11:28:31.637Z,25.78
2019-04-29T11:31:00.491Z,25.74
2019-04-29T11:33:35.611Z,25.70
2019-04-29T11:36:12.006Z,25.64
2019-04-29T11:38:59.609Z,25.55
2019-04-29T11:41:31.331Z,25.51
2019-04-29T11:44:04.153Z,25.39
2019-04-29T11:46:31.872Z,25.25
2019-04-29T11:49:01.324Z,25.13
2019-04-29T12:06:56.212Z,24.37
2019-04-29T12:17:57.554Z,23.93
2019-04-29T12:24:40.500Z,23.82
2019-04-29T12:30:36.289Z,23.78
2019-04-29T12:33:38.499Z,23.87
2019-04-29T12:36:08.850Z,23.97
2019-04-29T12:38:54.800Z,24.08
2019-04-29T12:41:48.720Z,24.16
2019-04-29T12:44:39.655Z,24.29
2019-04-29T13:16:35.243Z,25.15
2019-04-29T13:19:25.123Z,25.31
2019-04-29T13:21:55.509Z,25.44
2019-04-29T13:24:24.808Z,25.61
2019-04-29T13:26:52.963Z,25.72
2019-04-29T13:29:31.884Z,25.79
2019-04-29T13:31:50.269Z,25.85
2019-04-29T13:34:24.878Z,25.89
2019-04-29T13:37:06.588Z,25.94
2019-04-29T13:39:38.428Z,25.97
2019-04-29T13:41:57.574Z,25.97
2019-04-29T13:44:24.657Z,25.96
2019-04-29T13:47:07.189Z,25.95
2019-04-29T14:31:59.026Z,24.66
2019-04-29T14:34:36.740Z,24.55
2019-04-29T14:37:19.832Z,24.45
2019-04-29T14:39:37.349Z,24.37
2019-04-29T14:42:13.942Z,24.30
2019-04-29T14:44:49.240Z,24.23
2019-04-29T14:47:36.965Z,24.17
2019-04-29T14:50:06.275Z,24.09
2019-04-29T14:52:34.835Z,23.99
2019-04-29T14:55:02.949Z,23.92
2019-04-29T14:57:31.302Z,23.85
2019-04-29T14:59:59.686Z,23.78
2019-04-29T15:02:28.098Z,23.65
2019-04-29T15:04:56.479Z,23.54
2019-04-29T15:07:26.960Z,23.44
2019-04-29T15:09:58.155Z,23.34
2019-04-29T15:13:19.657Z,23.23
2019-04-29T15:15:48.443Z,23.09
2019-04-29T15:18:47.711Z,22.94
2019-04-29T15:21:43.883Z,22.82
2019-04-29T15:24:09.227Z,22.69
2019-04-29T15:26:37.331Z,22.55
2019-04-29T15:29:06.574Z,22.45
2019-04-29T15:31:34.647Z,22.36
2019-04-29T15:34:08.931Z,22.28
2019-04-29T15:36:35.980Z,22.20
2019-04-29T15:39:10.744Z,22.11
2019-04-29T15:41:37.665Z,22.01
2019-04-29T15:44:08.188Z,21.92
2019-04-29T15:46:46.315Z,21.85
2019-04-29T15:49:09.058Z,21.76
2019-04-29T15:51:37.230Z,21.67
2019-04-29T15:54:09.262Z,21.61
2019-04-29T15:56:38.717Z,21.56
2019-04-29T15:59:08.555Z,21.50
2019-04-29T16:01:35.951Z,21.41
2019-04-29T16:04:07.637Z,21.32
2019-04-29T16:06:54.277Z,21.24
2019-04-29T16:09:51.741Z,21.15
2019-04-29T16:12:21.165Z,21.07
2019-04-29T16:14:49.532Z,20.98
2019-04-29T16:17:20.528Z,20.92
2019-04-29T16:19:48.072Z,20.89
2019-04-29T16:22:19.794Z,20.86
2019-04-29T16:24:46.213Z,20.81
2019-04-29T16:27:14.745Z,20.79
2019-04-29T16:29:46.302Z,20.74
2019-04-29T16:32:21.016Z,20.71
2019-04-29T16:34:49.194Z,20.66
2019-04-29T16:37:19.454Z,20.63
2019-04-29T16:39:47.831Z,20.61
2019-04-29T16:42:30.451Z,20.58
2019-04-29T16:44:58.520Z,20.55
2019-04-29T16:47:28.049Z,20.53
2019-04-29T16:50:04.816Z,20.51
2019-04-29T16:52:30.483Z,20.46
2019-04-29T16:55:03.627Z,20.42
2019-04-29T16:57:28.509Z,20.37
2019-04-29T16:59:57.507Z,20.32
2019-04-29T17:02:25.746Z,20.28
2019-04-29T17:04:53.784Z,20.25
2019-04-29T17:07:21.902Z,20.21
2019-04-29T17:10:05.401Z,20.16
2019-04-29T17:12:44.553Z,20.13
2019-04-29T17:15:24.082Z,20.06
2019-04-29T17:17:44.556Z,20.01
2019-04-29T17:20:13.214Z,19.96
2019-04-29T17:22:43.621Z,19.92
2019-04-29T17:25:13.468Z,19.87
2019-04-29T17:28:12.092Z,19.83
2019-04-29T17:31:13.456Z,19.78
2019-04-29T17:33:50.402Z,19.71
2019-04-29T17:36:23.605Z,19.64
2019-04-29T17:38:49.217Z,19.59
2019-04-29T17:41:17.570Z,19.54
2019-04-29T17:44:02.252Z,19.50
2019-04-29T17:46:45.871Z,19.49
2019-04-29T17:49:36.260Z,19.44
2019-04-29T17:52:09.688Z,19.39
2019-04-29T17:54:40.704Z,19.33
2019-04-29T17:57:28.181Z,19.28
2019-04-29T18:00:16.477Z,19.23
2019-04-29T18:03:03.212Z,19.17
2019-04-29T18:05:54.494Z,19.12
2019-04-29T18:08:13.135Z,19.05
2019-04-29T18:10:45.783Z,18.98
2019-04-29T18:13:18.767Z,18.91
2019-04-29T18:16:00.102Z,18.77
2019-04-29T18:18:24.378Z,18.62
2019-04-29T18:21:20.795Z,18.45
2019-04-29T18:24:11.658Z,18.34
2019-04-29T18:27:00.771Z,18.25
2019-04-29T18:29:29.691Z,18.16
2019-04-29T18:32:00.524Z,18.07
2019-04-29T18:34:29.310Z,18.02
2019-04-29T18:37:00.351Z,17.97
2019-04-29T18:39:31.631Z,17.91
2019-04-29T18:42:03.102Z,17.85
2019-04-29T18:44:30.268Z,17.75
2019-04-29T18:46:59.433Z,17.66
2019-04-29T18:49:27.514Z,17.58
2019-04-29T18:52:01.997Z,17.53
2019-04-29T18:54:28.765Z,17.46
2019-04-29T18:56:56.812Z,17.42
2019-04-29T18:59:30.363Z,17.40
2019-04-29T19:01:54.929Z,17.38
2019-04-29T19:04:54.939Z,17.34
2019-04-29T19:07:25.505Z,17.23
2019-04-29T19:09:55.522Z,17.10
2019-04-29T19:12:24.513Z,16.98
2019-04-29T19:14:52.658Z,16.85
2019-04-29T19:17:21.902Z,16.76
2019-04-29T19:19:50.018Z,16.67
2019-04-29T19:22:18.167Z,16.56
2019-04-29T19:24:48.163Z,16.47
2019-04-29T19:27:16.358Z,16.38
2019-04-29T19:29:44.555Z,16.28
2019-04-29T19:32:12.931Z,16.20
2019-04-29T19:34:43.510Z,16.10
2019-04-29T19:37:11.466Z,16.02
2019-04-29T19:39:40.071Z,15.95
2019-04-29T19:42:08.277Z,15.88
2019-04-29T19:44:36.848Z,15.81
2019-04-29T19:47:05.288Z,15.76
2019-04-29T19:49:33.389Z,15.69
2019-04-29T19:52:01.510Z,15.65
2019-04-29T19:54:30.223Z,15.57
2019-04-29T19:57:03.404Z,15.51
2019-04-29T19:59:28.966Z,15.46
2019-04-29T20:02:05.729Z,15.41
2019-04-29T20:04:36.566Z,15.35
2019-04-29T20:07:09.382Z,15.28
2019-04-29T20:09:38.061Z,15.22
2019-04-29T20:12:12.809Z,15.17
2019-04-29T20:14:37.255Z,15.13
2019-04-29T20:17:47.123Z,15.11
2019-04-29T20:20:25.104Z,15.07
2019-04-29T20:22:55.741Z,15.02
2019-04-29T20:25:30.821Z,14.98
2019-04-29T20:28:05.441Z,14.95
2019-04-29T20:30:28.281Z,14.93
2019-04-29T20:32:56.595Z,14.91
2019-04-29T20:35:25.976Z,14.91
2019-04-29T20:37:58.593Z,14.90
2019-04-29T20:40:27.082Z,14.89
2019-04-29T20:42:55.350Z,14.85
2019-04-29T20:45:25.457Z,14.84
2019-04-29T20:47:54.082Z,14.83
2019-04-29T20:50:25.081Z,14.81
2019-04-29T20:53:11.495Z,14.81
2019-04-29T20:55:39.862Z,14.79
2019-04-29T20:58:09.465Z,14.74
2019-04-29T21:00:39.469Z,14.72
2019-04-29T21:03:11.181Z,14.71
2019-04-29T21:05:47.413Z,14.70
2019-04-29T21:08:16.205Z,14.70
2019-04-29T21:10:43.090Z,14.68
2019-04-29T21:13:39.182Z,14.67
2019-04-29T21:16:30.896Z,14.65
2019-04-29T21:19:08.368Z,14.63
2019-04-29T21:21:36.748Z,14.62
2019-04-29T21:24:06.464Z,14.60
2019-04-29T21:26:37.967Z,14.59
2019-04-29T21:29:06.400Z,14.58
2019-04-29T21:31:35.497Z,14.56
2019-04-29T21:34:05.454Z,14.56
2019-04-29T21:36:49.007Z,14.55
2019-04-29T21:39:36.380Z,14.54
2019-04-29T21:42:20.288Z,14.53
2019-04-29T21:44:48.320Z,14.52
2019-04-29T21:47:16.837Z,14.50
2019-04-29T21:49:45.857Z,14.48
2019-04-29T21:52:15.381Z,14.43
2019-04-29T21:54:44.545Z,14.41
2019-04-29T21:57:17.041Z,14.38
2019-04-29T21:59:46.159Z,14.34
2019-04-29T22:02:17.443Z,14.29
2019-04-29T22:04:47.058Z,14.24
2019-04-29T22:07:15.729Z,14.18
2019-04-29T22:09:47.185Z,14.14
2019-04-29T22:12:20.324Z,14.10
2019-04-29T22:14:52.313Z,14.06
2019-04-29T22:17:17.038Z,14.04
2019-04-29T22:19:46.507Z,13.96
2019-04-29T22:22:14.632Z,13.90
2019-04-29T22:24:42.694Z,13.88
2019-04-29T22:27:10.901Z,13.85
2019-04-29T22:29:40.333Z,13.80
2019-04-29T22:32:14.335Z,13.76
2019-04-29T22:34:38.499Z,13.72
2019-04-29T22:37:06.590Z,13.69
2019-04-29T22:39:35.713Z,13.67
2019-04-29T22:42:27.808Z,13.65
2019-04-29T22:44:57.356Z,13.64
2019-04-29T22:47:25.034Z,13.62
2019-04-29T22:49:54.325Z,13.61
2019-04-29T22:52:25.573Z,13.59
2019-04-29T22:54:57.891Z,13.59
2019-04-29T22:57:30.131Z,13.57
2019-04-29T22:59:57.067Z,13.52
2019-04-29T23:02:25.086Z,13.48
2019-04-29T23:04:54.762Z,13.45
2019-04-29T23:07:23.484Z,13.40
2019-04-29T23:09:52.885Z,13.35
2019-04-29T23:12:22.770Z,13.32
2019-04-29T23:14:51.167Z,13.30
2019-04-29T23:17:19.272Z,13.28
2019-04-29T23:19:50.685Z,13.28
2019-04-29T23:22:37.017Z,13.31
2019-04-29T23:25:15.702Z,13.33
2019-04-29T23:27:48.488Z,13.33
2019-04-29T23:30:18.074Z,13.35
2019-04-29T23:32:47.731Z,13.34
2019-04-29T23:35:15.761Z,13.32
2019-04-29T23:37:45.770Z,13.29
2019-04-29T23:40:14.743Z,13.25
2019-04-29T23:42:43.730Z,13.22
2019-04-29T23:45:14.550Z,13.21
2019-04-29T23:47:46.826Z,13.19
2019-04-29T23:50:18.676Z,13.14
2019-04-29T23:52:47.896Z,13.13
2019-04-29T23:55:15.934Z,13.11
2019-04-29T23:58:09.409Z,13.12
